Time;durP1;ratioP1;P1;durP2;ratioP2;P2;SDS_P1;SDS_P2;PMS_P1;PMS_P2;Temp;Humidity;BMP_temperature;BMP_pressure;BME280_temperature;BME280_humidity;BME280_pressure;Samples;Min_cycle;Max_cycle;Signal;HPM_P1;HPM_P2
2021/12/11 00:02:09;;;;;;;66.07;31.08;;;204.80;1996.80;;;;;;5093313;28;20024;-61
2021/12/11 00:04:38;;;;;;;56.15;27.50;;;204.80;1996.80;;;;;;5093721;28;20378;-61
2021/12/11 00:07:08;;;;;;;59.05;28.63;;;204.80;1996.80;;;;;;5093741;28;20059;-61
2021/12/11 00:09:48;;;;;;;56.58;26.40;;;204.80;1971.20;;;;;;5093649;28;20424;-62
2021/12/11 00:12:40;;;;;;;56.22;26.40;;;204.80;1971.20;;;;;;5075279;28;20478;-62
2021/12/11 00:15:15;;;;;;;56.08;27.48;;;204.80;1971.20;;;;;;5093688;28;20107;-62
2021/12/11 00:17:42;;;;;;;54.75;27.48;;;180.10;1945.60;;;;;;5093579;28;20065;-61
2021/12/11 00:20:22;;;;;;;58.28;29.42;;;180.10;1894.40;;;;;;5093842;28;20454;-61
2021/12/11 00:22:48;;;;;;;59.70;29.20;;;180.10;1920.00;;;;;;5096304;28;20075;-62
2021/12/11 00:25:18;;;;;;;72.35;29.30;;;180.00;1996.80;;;;;;5097422;28;20051;-62
2021/12/11 00:27:47;;;;;;;56.42;26.60;;;180.10;1971.20;;;;;;5097424;28;20039;-61
2021/12/11 00:30:43;;;;;;;58.28;26.63;;;180.10;1920.00;;;;;;5097321;28;20069;-61
2021/12/11 00:33:11;;;;;;;;;;;179.90;1945.60;;;;;;5078364;28;20032;-61
2021/12/11 00:35:37;;;;;;;60.60;26.55;;;179.90;1996.80;;;;;;5097334;28;20356;-60
2021/12/11 00:38:13;;;;;;;58.67;26.77;;;179.90;1996.80;;;;;;5097461;28;20064;-60
2021/12/11 00:40:42;;;;;;;54.80;25.80;;;179.90;1971.20;;;;;;5097567;28;20024;-61
2021/12/11 00:43:15;;;;;;;58.15;27.05;;;179.90;1945.60;;;;;;5096924;28;20055;-61
2021/12/11 00:45:41;;;;;;;64.78;28.40;;;179.80;1945.60;;;;;;5097256;28;20020;-61
2021/12/11 00:48:14;;;;;;;55.58;27.45;;;179.70;2022.40;;;;;;5097291;28;20032;-61
2021/12/11 00:50:42;;;;;;;63.20;28.23;;;179.80;2022.40;;;;;;5097107;28;20038;-61
2021/12/11 00:53:21;;;;;;;61.70;26.55;;;179.80;1971.20;;;;;;5097256;28;20027;-61
2021/12/11 00:55:51;;;;;;;67.05;29.73;;;179.80;1945.60;;;;;;5096957;28;20458;-61
2021/12/11 00:58:21;;;;;;;60.10;27.38;;;179.70;1996.80;;;;;;5096875;28;20112;-61
2021/12/11 01:01:01;;;;;;;62.28;28.80;;;179.60;1996.80;;;;;;5097040;28;20038;-62
2021/12/11 01:03:28;;;;;;;58.30;29.67;;;179.60;2048.00;;;;;;5096968;28;20374;-61
2021/12/11 01:05:57;;;;;;;67.40;28.83;;;179.70;2099.20;;;;;;5096619;28;20469;-58
2021/12/11 01:08:32;;;;;;;64.03;30.27;;;179.80;2124.80;;;;;;5096923;28;20055;-59
2021/12/11 01:11:13;;;;;;;65.00;29.77;;;179.80;2073.60;;;;;;5096757;28;20043;-59
2021/12/11 01:14:06;;;;;;;62.35;29.10;;;179.80;2048.00;;;;;;5096505;28;20515;-58
2021/12/11 01:16:32;;;;;;;62.15;28.67;;;179.90;2022.40;;;;;;5096475;28;20465;-58
2021/12/11 01:19:04;;;;;;;59.58;29.58;;;179.90;2048.00;;;;;;5096722;28;20032;-58
2021/12/11 01:24:27;;;;;;;63.15;29.25;;;180.00;2022.40;;;;;;5096575;28;20424;-57
2021/12/11 01:26:57;;;;;;;60.67;29.17;;;180.00;2022.40;;;;;;5096615;28;20039;-58
2021/12/11 01:29:26;;;;;;;60.78;30.83;;;180.10;2022.40;;;;;;5096258;28;20445;-57
2021/12/11 01:31:56;;;;;;;55.78;28.13;;;204.80;1996.80;;;;;;5096179;28;20378;-58
2021/12/11 01:34:22;;;;;;;64.95;30.25;;;204.80;1996.80;;;;;;5095951;28;20077;-58
2021/12/11 01:36:49;;;;;;;60.08;30.52;;;204.80;2022.40;;;;;;5096269;28;20156;-58
2021/12/11 01:39:19;;;;;;;57.92;29.52;;;204.80;1996.80;;;;;;5096339;28;20035;-56
2021/12/11 01:41:46;;;;;;;56.08;28.60;;;204.80;1996.80;;;;;;5096213;28;20032;-57
2021/12/11 01:44:16;;;;;;;59.45;29.40;;;180.10;2022.40;;;;;;5096016;28;20117;-57
2021/12/11 01:46:43;;;;;;;51.33;28.48;;;180.10;2022.40;;;;;;5095911;28;20028;-59
2021/12/11 01:49:16;;;;;;;57.33;28.67;;;204.80;1996.80;;;;;;5096208;28;20028;-58
2021/12/11 01:51:52;;;;;;;51.72;27.83;;;204.80;1996.80;;;;;;5096120;28;20027;-58
2021/12/11 01:54:33;;;;;;;51.47;27.75;;;204.80;2022.40;;;;;;5095935;28;20031;-58
2021/12/11 01:57:04;;;;;;;48.03;25.92;;;204.90;1996.80;;;;;;5095829;28;20032;-57
2021/12/11 01:59:38;;;;;;;54.97;29.25;;;204.90;1971.20;;;;;;5096051;28;20028;-57
2021/12/11 02:02:16;;;;;;;49.78;27.05;;;204.90;1996.80;;;;;;5095678;28;20063;-58
2021/12/11 02:04:45;;;;;;;49.85;27.88;;;204.90;1996.80;;;;;;5095850;28;20040;-58
2021/12/11 02:07:22;;;;;;;56.95;29.75;;;204.90;1971.20;;;;;;5095697;28;20052;-58
2021/12/11 02:09:55;;;;;;;54.15;27.42;;;204.90;1996.80;;;;;;5095944;28;20044;-58
2021/12/11 02:12:38;;;;;;;48.92;26.60;;;204.90;1996.80;;;;;;5095978;28;20020;-58
2021/12/11 02:15:31;;;;;;;48.78;26.48;;;205.00;1971.20;;;;;;5095681;28;20077;-58
2021/12/11 02:18:00;;;;;;;54.90;26.95;;;204.90;1971.20;;;;;;5095509;28;20056;-58
2021/12/11 02:20:35;;;;;;;51.70;26.85;;;204.90;1996.80;;;;;;5095532;28;20073;-59
2021/12/11 02:23:03;;;;;;;47.58;25.45;;;204.90;1971.20;;;;;;5095618;28;20102;-59
2021/12/11 02:25:36;;;;;;;47.92;26.10;;;204.90;1945.60;;;;;;5095387;28;20115;-58
2021/12/11 02:28:05;;;;;;;50.38;26.65;;;204.80;2022.40;;;;;;5095417;28;20035;-58
2021/12/11 02:30:44;;;;;;;50.78;27.23;;;204.90;1996.80;;;;;;5095323;28;20024;-58
2021/12/11 02:33:26;;;;;;;53.03;28.17;;;204.90;1971.20;;;;;;5095282;28;20020;-58
2021/12/11 02:35:58;;;;;;;54.35;26.95;;;204.90;1996.80;;;;;;5095214;28;20024;-58
2021/12/11 02:38:33;;;;;;;53.40;26.50;;;204.90;1996.80;;;;;;5095592;28;20032;-57
2021/12/11 02:41:14;;;;;;;51.03;25.63;;;204.80;1945.60;;;;;;5095124;28;20080;-58
2021/12/11 02:43:54;;;;;;;45.50;24.75;;;204.80;1996.80;;;;;;5094453;28;20054;-58
2021/12/11 02:46:32;;;;;;;43.22;22.98;;;204.80;1996.80;;;;;;5094718;28;20024;-58
2021/12/11 02:49:16;;;;;;;52.63;23.38;;;180.10;1945.60;;;;;;5095628;28;20366;-58
2021/12/11 02:52:04;;;;;;;51.33;25.83;;;180.00;1996.80;;;;;;5094506;28;20028;-58
2021/12/11 02:54:36;;;;;;;50.53;25.02;;;179.90;1996.80;;;;;;5094783;28;20020;-58
2021/12/11 02:57:27;;;;;;;51.63;23.05;;;179.90;1971.20;;;;;;5094808;28;20028;-59
2021/12/11 02:59:54;;;;;;;50.95;22.98;;;180.00;1945.60;;;;;;5094726;28;20132;-59
2021/12/11 03:02:29;;;;;;;54.42;25.42;;;179.90;1996.80;;;;;;5094709;28;20389;-58
2021/12/11 03:05:05;;;;;;;47.47;22.33;;;179.90;1971.20;;;;;;5094769;28;20063;-58
2021/12/11 03:07:36;;;;;;;48.42;23.67;;;179.90;1945.60;;;;;;5094840;28;20020;-58
2021/12/11 03:10:10;;;;;;;51.05;24.42;;;179.80;2022.40;;;;;;5094523;28;20024;-58
2021/12/11 03:12:38;;;;;;;51.42;24.70;;;179.70;1996.80;;;;;;5094534;28;20103;-57
2021/12/11 03:15:06;;;;;;;53.45;24.65;;;179.80;1945.60;;;;;;5094399;28;20028;-58
2021/12/11 03:17:32;;;;;;;51.35;23.77;;;179.70;2022.40;;;;;;5094212;28;20438;-57
2021/12/11 03:19:58;;;;;;;57.20;25.20;;;179.60;2022.40;;;;;;5094452;28;20044;-58
2021/12/11 03:22:30;;;;;;;61.60;26.95;;;179.60;1996.80;;;;;;5094454;28;20477;-57
2021/12/11 03:24:57;;;;;;;63.15;28.20;;;179.70;1971.20;;;;;;5094232;28;20430;-58
2021/12/11 03:27:24;;;;;;;61.75;27.27;;;179.60;2048.00;;;;;;5094229;28;20032;-59
2021/12/11 03:29:50;;;;;;;69.32;26.70;;;179.60;2022.40;;;;;;5094064;28;20024;-58
2021/12/11 03:32:17;;;;;;;65.57;27.95;;;179.70;1971.20;;;;;;5094360;28;20028;-58
2021/12/11 03:34:44;;;;;;;62.55;27.85;;;179.70;2022.40;;;;;;5094169;28;20036;-57
2021/12/11 03:37:12;;;;;;;65.93;26.83;;;179.50;2048.00;;;;;;5094031;28;20063;-56
2021/12/11 03:39:40;;;;;;;64.28;27.77;;;179.60;1996.80;;;;;;5075999;28;20032;-56
2021/12/11 03:42:13;;;;;;;66.70;28.20;;;179.60;1996.80;;;;;;5093796;28;20031;-58
2021/12/11 03:44:40;;;;;;;61.92;25.75;;;179.60;2048.00;;;;;;5094567;28;20365;-58
2021/12/11 03:47:11;;;;;;;62.03;28.33;;;179.60;2048.00;;;;;;5093770;28;20067;-58
2021/12/11 03:49:37;;;;;;;64.03;28.30;;;179.60;1996.80;;;;;;5093553;28;20389;-57
2021/12/11 03:52:05;;;;;;;65.38;26.88;;;179.60;1996.80;;;;;;5093912;28;20049;-58
2021/12/11 03:54:33;;;;;;;62.95;27.52;;;179.60;2048.00;;;;;;5094317;28;20016;-59
2021/12/11 03:57:00;;;;;;;54.63;26.17;;;179.70;2048.00;;;;;;5093720;28;20390;-58
2021/12/11 03:59:27;;;;;;;59.85;27.92;;;179.70;1971.20;;;;;;5093543;28;20103;-58
2021/12/11 04:02:00;;;;;;;59.88;27.92;;;179.60;1996.80;;;;;;5093403;28;20031;-59
2021/12/11 04:04:40;;;;;;;57.38;26.63;;;179.60;2073.60;;;;;;5093698;28;20031;-58
2021/12/11 04:07:09;;;;;;;66.55;29.10;;;179.70;2022.40;;;;;;5093813;28;20036;-59
2021/12/11 04:09:36;;;;;;;54.70;25.23;;;179.70;1996.80;;;;;;5093647;28;20032;-59
2021/12/11 04:12:04;;;;;;;54.13;24.55;;;179.60;2048.00;;;;;;5093728;28;20028;-59
2021/12/11 04:14:34;;;;;;;53.80;26.40;;;179.60;2073.60;;;;;;5093772;28;20377;-58
2021/12/11 04:17:02;;;;;;;50.25;23.88;;;179.60;2022.40;;;;;;5093680;28;20088;-57
2021/12/11 04:19:28;;;;;;;50.92;24.67;;;179.50;2022.40;;;;;;5093710;28;20031;-59
2021/12/11 04:21:54;;;;;;;50.25;22.77;;;179.60;2022.40;;;;;;5093427;28;20032;-59
2021/12/11 04:24:24;;;;;;;47.10;22.98;;;179.60;1996.80;;;;;;5093631;28;20361;-58
2021/12/11 04:26:50;;;;;;;44.22;23.08;;;179.60;1996.80;;;;;;5093715;28;20437;-57
2021/12/11 04:29:16;;;;;;;53.35;24.20;;;179.60;1996.80;;;;;;5093062;28;20051;-59
2021/12/11 04:31:46;;;;;;;46.22;22.63;;;179.60;2022.40;;;;;;5093575;28;20031;-57
2021/12/11 04:34:14;;;;;;;59.70;26.52;;;179.60;2073.60;;;;;;5093507;28;20077;-57
2021/12/11 04:36:47;;;;;;;66.38;25.77;;;179.60;2124.80;;;;;;5093332;28;20054;-57
2021/12/11 04:39:15;;;;;;;49.22;22.98;;;179.60;2124.80;;;;;;5093271;28;20043;-57
2021/12/11 04:41:53;;;;;;;47.08;22.33;;;179.70;2048.00;;;;;;5093486;28;20458;-58
2021/12/11 04:44:25;;;;;;;57.38;21.33;;;179.60;2022.40;;;;;;5073390;28;20048;-59
2021/12/11 04:46:52;;;;;;;40.90;20.20;;;179.80;2201.60;;;;;;5072974;28;20458;-58
2021/12/11 04:49:44;;;;;;;34.17;18.73;;;179.90;2099.20;;;;;;5072991;28;20020;-58
2021/12/11 04:52:19;;;;;;;34.25;17.65;;;179.80;2073.60;;;;;;5072526;28;20035;-57
2021/12/11 04:55:09;;;;;;;34.50;17.52;;;179.80;2073.60;;;;;;5073051;28;20028;-57
2021/12/11 05:00:35;;;;;;;35.50;20.13;;;179.80;2073.60;;;;;;5072795;28;20053;-58
2021/12/11 05:11:08;;;;;;;31.60;16.63;;;179.70;2073.60;;;;;;5076493;28;20381;-57
2021/12/11 05:13:35;;;;;;;30.95;17.50;;;179.70;2073.60;;;;;;5076550;28;20055;-57
2021/12/11 05:16:04;;;;;;;34.85;17.45;;;179.70;2073.60;;;;;;5076256;28;20025;-58
2021/12/11 05:18:35;;;;;;;35.85;17.52;;;179.70;2099.20;;;;;;5076347;28;20060;-59
2021/12/11 05:21:06;;;;;;;37.63;17.70;;;179.70;2099.20;;;;;;5076579;28;20443;-59
2021/12/11 05:23:32;;;;;;;29.77;16.05;;;179.70;2073.60;;;;;;5076570;28;20104;-59
2021/12/11 05:25:58;;;;;;;34.63;17.80;;;179.70;2099.20;;;;;;5076694;28;20421;-58
2021/12/11 05:28:23;;;;;;;31.48;17.27;;;179.70;2099.20;;;;;;5076218;28;20100;-59
2021/12/11 05:30:52;;;;;;;34.55;17.95;;;179.70;2099.20;;;;;;5076037;28;20029;-59
2021/12/11 05:33:19;;;;;;;39.78;19.50;;;179.70;2099.20;;;;;;5076129;28;20024;-59
2021/12/11 05:35:46;;;;;;;38.05;18.60;;;179.70;2099.20;;;;;;5076052;28;20029;-59
2021/12/11 05:38:13;;;;;;;39.20;20.67;;;179.70;2099.20;;;;;;5075765;28;20497;-59
2021/12/11 05:40:43;;;;;;;35.90;18.98;;;179.80;2099.20;;;;;;5075902;28;20017;-59
2021/12/11 05:43:10;;;;;;;32.45;18.10;;;179.80;2099.20;;;;;;5075564;28;20124;-59
2021/12/11 05:45:36;;;;;;;38.03;20.45;;;179.70;2099.20;;;;;;5076322;28;20024;-59
2021/12/11 05:48:02;;;;;;;42.85;21.80;;;179.80;2099.20;;;;;;5075339;28;20382;-59
2021/12/11 05:50:36;;;;;;;39.10;19.95;;;179.80;2099.20;;;;;;5075935;28;20476;-59
2021/12/11 05:53:03;;;;;;;37.38;19.88;;;179.80;2099.20;;;;;;5075474;28;20032;-59
2021/12/11 05:55:31;;;;;;;40.78;20.42;;;179.80;2099.20;;;;;;5075637;28;20390;-59
2021/12/11 05:58:02;;;;;;;36.72;20.55;;;179.90;2073.60;;;;;;5075652;28;20047;-59
2021/12/11 06:00:33;;;;;;;38.53;20.63;;;179.90;2099.20;;;;;;5075333;28;20100;-59
2021/12/11 06:03:03;;;;;;;38.15;21.20;;;179.90;2073.60;;;;;;5075579;28;20107;-59
2021/12/11 06:05:29;;;;;;;44.00;21.38;;;179.90;2099.20;;;;;;5075366;28;20024;-58
2021/12/11 06:07:55;;;;;;;37.30;20.70;;;179.90;2099.20;;;;;;5075344;28;20032;-60
2021/12/11 06:10:22;;;;;;;38.22;21.08;;;179.90;2099.20;;;;;;5075462;28;20025;-57
2021/12/11 06:12:50;;;;;;;39.63;22.20;;;179.90;2099.20;;;;;;5075419;28;20032;-59
2021/12/11 06:15:16;;;;;;;39.15;21.45;;;179.90;2099.20;;;;;;5075411;28;20485;-62
2021/12/11 06:17:43;;;;;;;41.47;21.85;;;180.00;2073.60;;;;;;5075210;28;20047;-57
2021/12/11 06:20:12;;;;;;;40.58;22.77;;;179.90;2099.20;;;;;;5074204;28;20066;-57
2021/12/11 06:22:38;;;;;;;41.95;23.02;;;179.90;2073.60;;;;;;5075366;28;20024;-57
2021/12/11 06:25:09;;;;;;;46.70;25.25;;;179.90;2073.60;;;;;;5075159;28;20042;-57
2021/12/11 06:27:37;;;;;;;49.85;24.42;;;179.90;2073.60;;;;;;5075050;28;20415;-60
2021/12/11 06:30:04;;;;;;;45.33;23.08;;;180.00;2099.20;;;;;;5074920;28;20016;-59
2021/12/11 06:32:30;;;;;;;45.95;23.45;;;180.00;2099.20;;;;;;5074610;28;20025;-66
2021/12/11 06:34:59;;;;;;;48.90;25.52;;;180.00;2073.60;;;;;;5074428;28;20143;-57
2021/12/11 06:37:25;;;;;;;46.40;24.63;;;180.00;2099.20;;;;;;5074908;28;20393;-59
2021/12/11 06:39:52;;;;;;;44.75;24.13;;;180.00;2099.20;;;;;;5074777;28;20017;-57
2021/12/11 06:42:20;;;;;;;46.45;25.52;;;180.00;2099.20;;;;;;5074574;28;20115;-57
2021/12/11 06:44:48;;;;;;;49.83;27.73;;;180.00;2099.20;;;;;;5075109;28;20106;-57
2021/12/11 06:47:15;;;;;;;47.55;25.42;;;180.00;2099.20;;;;;;5074616;28;20028;-58
2021/12/11 06:49:41;;;;;;;51.92;25.65;;;180.00;2099.20;;;;;;5074678;28;20029;-56
2021/12/11 06:52:14;;;;;;;50.03;27.42;;;180.00;2099.20;;;;;;5073787;28;20082;-56
2021/12/11 06:54:40;;;;;;;50.58;26.67;;;180.00;2099.20;;;;;;5074638;28;20105;-56
2021/12/11 06:57:06;;;;;;;64.25;31.85;;;180.00;2099.20;;;;;;5074505;28;20029;-56
2021/12/11 06:59:33;;;;;;;61.17;33.33;;;179.90;2099.20;;;;;;5074280;28;20033;-59
2021/12/11 07:01:59;;;;;;;52.70;28.67;;;180.00;2099.20;;;;;;5074285;28;20070;-58
2021/12/11 07:04:25;;;;;;;50.97;25.65;;;179.90;2099.20;;;;;;5074152;28;20462;-56
2021/12/11 07:06:54;;;;;;;47.42;25.83;;;179.90;2099.20;;;;;;5074386;28;20021;-61
2021/12/11 07:09:22;;;;;;;45.33;25.10;;;179.90;2099.20;;;;;;5074034;28;20028;-61
2021/12/11 07:11:50;;;;;;;51.47;27.50;;;179.90;2099.20;;;;;;5074125;28;20035;-61
2021/12/11 07:14:17;;;;;;;51.38;28.05;;;179.90;2099.20;;;;;;5073835;28;20107;-61
2021/12/11 07:16:44;;;;;;;53.40;29.65;;;179.90;2099.20;;;;;;5074158;28;20039;-63
2021/12/11 07:19:10;;;;;;;75.25;40.35;;;179.90;2099.20;;;;;;5064971;28;20033;-62
2021/12/11 07:21:37;;;;;;;52.92;31.35;;;179.90;2099.20;;;;;;5064174;28;20038;-61
2021/12/11 07:24:06;;;;;;;49.20;26.05;;;179.90;2099.20;;;;;;5063685;28;20032;-61
2021/12/11 07:26:34;;;;;;;54.90;30.10;;;180.00;2099.20;;;;;;5062404;28;20031;-66
2021/12/11 07:29:10;;;;;;;56.28;32.35;;;180.00;2099.20;;;;;;5053699;28;20025;-61
2021/12/11 07:31:37;;;;;;;59.40;32.40;;;180.00;2099.20;;;;;;5054069;28;20037;-63
2021/12/11 07:34:03;;;;;;;67.95;34.42;;;180.00;2099.20;;;;;;5072367;28;20422;-61
2021/12/11 07:36:30;;;;;;;71.57;35.05;;;180.00;2099.20;;;;;;5073784;28;20063;-61
2021/12/11 07:38:57;;;;;;;72.18;35.22;;;180.00;2099.20;;;;;;5073760;28;20032;-61
2021/12/11 07:41:24;;;;;;;70.85;36.15;;;180.00;2099.20;;;;;;5073342;28;20031;-61
2021/12/11 07:43:50;;;;;;;58.85;31.73;;;180.00;2099.20;;;;;;5090399;28;20077;-60
2021/12/11 07:46:21;;;;;;;62.00;33.72;;;180.00;2099.20;;;;;;5093624;28;20024;-61
2021/12/11 07:48:48;;;;;;;65.63;34.72;;;180.00;2099.20;;;;;;5093982;28;20432;-61
2021/12/11 07:51:15;;;;;;;66.63;32.10;;;180.00;2099.20;;;;;;5094046;28;20032;-61
2021/12/11 07:53:42;;;;;;;69.47;35.00;;;180.00;2099.20;;;;;;5076365;28;20427;-61
2021/12/11 07:56:08;;;;;;;69.68;39.15;;;180.00;2124.80;;;;;;5094023;28;20024;-62
2021/12/11 07:58:35;;;;;;;69.22;35.70;;;180.00;2099.20;;;;;;5093470;28;20092;-61
2021/12/11 08:01:04;;;;;;;60.78;31.38;;;180.00;2099.20;;;;;;5075032;28;20051;-61
2021/12/11 08:03:30;;;;;;;65.95;34.20;;;180.00;2099.20;;;;;;5093608;28;20024;-62
2021/12/11 08:05:56;;;;;;;71.13;37.70;;;180.00;2099.20;;;;;;5093773;28;20522;-60
2021/12/11 08:08:23;;;;;;;72.75;41.03;;;180.00;2099.20;;;;;;5093973;28;20036;-61
2021/12/11 08:10:53;;;;;;;83.60;43.70;;;180.10;2099.20;;;;;;5093812;28;20024;-61
2021/12/11 08:13:18;;;;;;;76.57;41.53;;;180.10;2099.20;;;;;;5094045;28;20021;-61
2021/12/11 08:15:45;;;;;;;72.22;39.95;;;180.10;2099.20;;;;;;5093715;28;20115;-62
2021/12/11 08:18:14;;;;;;;70.07;38.45;;;180.10;2099.20;;;;;;5093381;28;20545;-61
2021/12/11 08:20:42;;;;;;;66.13;34.20;;;180.00;2099.20;;;;;;5093849;28;20055;-61
2021/12/11 08:23:10;;;;;;;76.35;38.80;;;180.10;2099.20;;;;;;5093790;28;20042;-61
2021/12/11 08:25:38;;;;;;;136.23;60.30;;;180.00;2099.20;;;;;;5093625;28;20027;-61
2021/12/11 08:28:05;;;;;;;121.30;60.17;;;180.00;2124.80;;;;;;5093419;28;20028;-61
2021/12/11 08:30:34;;;;;;;98.20;49.47;;;180.00;2124.80;;;;;;5093635;28;20038;-61
2021/12/11 08:33:00;;;;;;;87.70;44.50;;;180.00;2124.80;;;;;;5093673;28;20032;-61
2021/12/11 08:35:26;;;;;;;91.15;47.55;;;180.10;2099.20;;;;;;5093490;28;20027;-61
2021/12/11 08:37:53;;;;;;;82.43;44.75;;;180.10;2124.80;;;;;;5074828;28;20044;-60
2021/12/11 08:40:26;;;;;;;70.40;37.63;;;180.10;2099.20;;;;;;5093513;28;20036;-61
2021/12/11 08:42:53;;;;;;;264.88;115.53;;;180.10;2124.80;;;;;;5094305;28;20040;-61
2021/12/11 08:45:24;;;;;;;125.65;67.20;;;180.10;2124.80;;;;;;5097670;28;20031;-61
2021/12/11 08:48:00;;;;;;;88.38;56.08;;;180.10;2099.20;;;;;;5097350;28;20466;-61
2021/12/11 08:50:30;;;;;;;72.80;44.95;;;180.10;2099.20;;;;;;5097267;28;20534;-61
2021/12/11 08:52:57;;;;;;;61.80;34.85;;;180.10;2099.20;;;;;;5097145;28;20030;-61
2021/12/11 08:55:30;;;;;;;53.33;31.65;;;180.10;2099.20;;;;;;5097144;28;20032;-61
2021/12/11 08:57:57;;;;;;;56.40;32.08;;;180.10;2099.20;;;;;;5097065;28;20043;-63
2021/12/11 09:00:36;;;;;;;68.20;36.30;;;180.00;2124.80;;;;;;5097078;28;20032;-61
2021/12/11 09:03:07;;;;;;;57.85;31.83;;;180.10;2124.80;;;;;;5097013;28;20485;-61
2021/12/11 09:05:59;;;;;;;61.15;35.15;;;180.10;2099.20;;;;;;5096896;28;20103;-61
2021/12/11 09:08:42;;;;;;;57.40;33.53;;;180.10;2124.80;;;;;;5096973;28;20077;-61
2021/12/11 09:11:20;;;;;;;68.13;37.80;;;180.10;2099.20;;;;;;5097188;28;20031;-61
2021/12/11 09:13:53;;;;;;;99.00;50.30;;;180.10;2124.80;;;;;;5096945;28;20415;-62
2021/12/11 09:16:27;;;;;;;77.45;38.70;;;180.10;2124.80;;;;;;5096817;28;20080;-61
2021/12/11 09:18:59;;;;;;;94.00;47.80;;;180.10;2124.80;;;;;;5096814;28;20038;-61
2021/12/11 09:21:45;;;;;;;87.85;45.65;;;180.10;2124.80;;;;;;5096552;28;20024;-61
2021/12/11 09:24:14;;;;;;;79.68;45.97;;;180.10;2124.80;;;;;;5096597;28;20019;-61
2021/12/11 09:26:49;;;;;;;95.25;52.10;;;180.10;2124.80;;;;;;5096536;28;20423;-61
2021/12/11 09:29:22;;;;;;;80.63;46.15;;;180.10;2150.40;;;;;;5096531;28;20077;-60
2021/12/11 09:32:11;;;;;;;70.30;38.83;;;180.10;2150.40;;;;;;5096372;28;20047;-61
2021/12/11 09:34:42;;;;;;;62.10;35.47;;;180.10;2150.40;;;;;;5096318;28;20106;-61
2021/12/11 09:37:10;;;;;;;56.83;32.13;;;180.10;2150.40;;;;;;5096256;28;20036;-61
2021/12/11 09:39:44;;;;;;;55.65;30.45;;;204.80;2150.40;;;;;;5096435;28;20373;-61
2021/12/11 09:42:10;;;;;;;54.28;31.02;;;204.90;2124.80;;;;;;5095969;28;20038;-61
2021/12/11 09:44:46;;;;;;;75.38;40.38;;;204.80;2124.80;;;;;;5096276;28;20122;-61
2021/12/11 09:47:19;;;;;;;95.97;50.03;;;204.90;2124.80;;;;;;5096191;28;20369;-61
2021/12/11 09:49:56;;;;;;;115.78;60.50;;;204.90;2124.80;;;;;;5096173;28;20059;-61
2021/12/11 09:52:24;;;;;;;84.60;46.17;;;204.90;2150.40;;;;;;5096122;28;20089;-60
2021/12/11 09:55:04;;;;;;;74.40;42.45;;;204.90;2124.80;;;;;;5095956;28;20024;-61
2021/12/11 09:57:35;;;;;;;70.20;41.35;;;204.90;2150.40;;;;;;5095971;28;20558;-61
2021/12/11 10:00:06;;;;;;;61.88;34.70;;;205.00;2124.80;;;;;;5095791;28;20026;-61
2021/12/11 10:02:34;;;;;;;69.72;35.55;;;205.00;2150.40;;;;;;5095717;28;20027;-61
2021/12/11 10:05:17;;;;;;;62.22;33.17;;;205.10;2150.40;;;;;;5095442;28;20020;-61
2021/12/11 10:08:01;;;;;;;58.20;30.17;;;205.10;2150.40;;;;;;5095809;28;20032;-61
2021/12/11 10:10:27;;;;;;;47.20;27.15;;;205.10;2150.40;;;;;;5095801;28;20107;-61
2021/12/11 10:12:57;;;;;;;58.05;33.67;;;205.10;2150.40;;;;;;5095821;28;20377;-60
2021/12/11 10:15:34;;;;;;;71.85;40.42;;;205.20;2150.40;;;;;;5095426;28;20016;-61
2021/12/11 10:18:06;;;;;;;65.13;38.67;;;205.20;2150.40;;;;;;5095405;28;20032;-61
2021/12/11 10:20:41;;;;;;;72.07;41.00;;;205.20;2150.40;;;;;;5095702;28;20024;-60
2021/12/11 10:23:08;;;;;;;;;;;205.30;2124.80;;;;;;5095879;28;20052;-61
2021/12/11 10:25:36;;;;;;;98.72;48.65;;;205.30;2124.80;;;;;;5095830;28;20361;-61
2021/12/11 10:28:06;;;;;;;71.53;40.95;;;205.30;2124.80;;;;;;5095333;28;20031;-61
2021/12/11 10:30:36;;;;;;;73.68;40.17;;;205.30;2124.80;;;;;;5095325;28;20069;-61
2021/12/11 10:33:05;;;;;;;76.95;40.05;;;205.40;2124.80;;;;;;5095341;28;20047;-61
2021/12/11 10:35:35;;;;;;;70.30;35.90;;;205.40;2124.80;;;;;;5095375;28;20028;-61
2021/12/11 10:38:05;;;;;;;65.35;36.08;;;205.40;2124.80;;;;;;5094920;28;20040;-61
2021/12/11 10:40:37;;;;;;;62.20;35.70;;;205.40;2124.80;;;;;;5094879;28;20028;-61
2021/12/11 10:43:12;;;;;;;59.88;33.63;;;205.40;2124.80;;;;;;5094778;28;20059;-61
2021/12/11 10:45:38;;;;;;;61.90;32.22;;;205.40;2124.80;;;;;;5095163;28;20024;-62
2021/12/11 10:48:10;;;;;;;73.00;35.85;;;205.40;2124.80;;;;;;5094915;28;20032;-61
2021/12/11 10:50:43;;;;;;;73.47;34.60;;;205.50;2124.80;;;;;;5095159;28;20377;-66
2021/12/11 10:53:12;;;;;;;99.63;48.28;;;205.50;2124.80;;;;;;5094606;28;20020;-62
2021/12/11 10:55:39;;;;;;;103.93;50.22;;;205.50;2124.80;;;;;;5094924;28;20146;-61
2021/12/11 10:58:17;;;;;;;114.88;54.88;;;205.50;2124.80;;;;;;5094771;28;20082;-60
2021/12/11 11:00:50;;;;;;;113.55;56.15;;;205.50;2124.80;;;;;;5090287;28;20489;-61
2021/12/11 11:03:16;;;;;;;102.07;51.15;;;205.50;2124.80;;;;;;5083506;28;20024;-60
2021/12/11 11:05:44;;;;;;;90.43;47.60;;;205.60;2124.80;;;;;;5081644;28;20378;-61
2021/12/11 11:08:11;;;;;;;103.80;46.33;;;205.60;2124.80;;;;;;5078236;28;20028;-61
2021/12/11 11:10:43;;;;;;;100.22;46.78;;;205.60;2124.80;;;;;;5073940;28;20033;-61
2021/12/11 11:13:13;;;;;;;95.13;47.22;;;205.60;2124.80;;;;;;5074403;28;20024;-60
2021/12/11 11:15:39;;;;;;;90.95;45.47;;;205.60;2124.80;;;;;;5084308;28;20024;-61
2021/12/11 11:18:08;;;;;;;94.85;49.65;;;205.60;2124.80;;;;;;5080252;28;20079;-63
2021/12/11 11:20:42;;;;;;;87.55;49.05;;;205.60;2124.80;;;;;;5085828;28;20103;-60
2021/12/11 11:23:08;;;;;;;86.68;47.42;;;205.60;2099.20;;;;;;5092889;28;20024;-60
2021/12/11 11:25:41;;;;;;;74.78;41.75;;;205.60;2124.80;;;;;;5092712;28;20078;-60
2021/12/11 11:28:10;;;;;;;68.32;39.85;;;205.70;2124.80;;;;;;5083199;28;20020;-61
2021/12/11 11:30:41;;;;;;;67.78;40.20;;;205.60;2124.80;;;;;;5090320;28;20054;-60
2021/12/11 11:33:08;;;;;;;64.60;37.58;;;205.60;2124.80;;;;;;5092462;28;20032;-61
2021/12/11 11:35:42;;;;;;;66.05;38.67;;;205.70;2124.80;;;;;;5092662;28;20085;-63
2021/12/11 11:38:13;;;;;;;68.05;39.47;;;205.70;2124.80;;;;;;5092521;28;20035;-62
2021/12/11 11:40:43;;;;;;;70.60;38.33;;;205.60;2124.80;;;;;;5090540;28;20028;-60
2021/12/11 11:43:09;;;;;;;67.20;40.78;;;205.70;2124.80;;;;;;5092595;28;20093;-61
2021/12/11 11:45:37;;;;;;;81.53;43.55;;;205.70;2124.80;;;;;;5092375;28;20031;-61
2021/12/11 11:48:04;;;;;;;82.22;47.05;;;205.60;2124.80;;;;;;5092461;28;20024;-61
2021/12/11 11:50:37;;;;;;;78.82;45.70;;;205.60;2124.80;;;;;;5081093;28;20028;-63
2021/12/11 11:53:04;;;;;;;81.68;44.38;;;205.70;2124.80;;;;;;5082203;28;20056;-63
2021/12/11 11:55:36;;;;;;;82.53;43.50;;;205.70;2124.80;;;;;;5083570;28;20020;-63
2021/12/11 11:58:03;;;;;;;87.43;44.88;;;205.70;2124.80;;;;;;5082306;28;20024;-60
2021/12/11 12:00:39;;;;;;;99.78;49.17;;;205.70;2124.80;;;;;;5081885;28;20024;-59
2021/12/11 12:03:05;;;;;;;96.70;49.75;;;205.70;2124.80;;;;;;5089087;28;20032;-61
2021/12/11 12:05:35;;;;;;;101.30;50.40;;;230.40;2124.80;;;;;;5080635;28;20403;-61
2021/12/11 12:08:02;;;;;;;88.28;46.33;;;230.40;2099.20;;;;;;5082791;28;20024;-66
2021/12/11 12:10:28;;;;;;;83.32;44.50;;;230.40;2124.80;;;;;;5082449;28;20021;-60
2021/12/11 12:12:54;;;;;;;81.53;41.08;;;230.40;2124.80;;;;;;5081286;28;20032;-61
2021/12/11 12:15:30;;;;;;;71.97;38.17;;;230.40;2099.20;;;;;;5082751;28;20024;-62
2021/12/11 12:17:56;;;;;;;71.80;36.97;;;230.40;2099.20;;;;;;5086148;28;20036;-65
2021/12/11 12:20:23;;;;;;;69.85;39.30;;;230.40;2124.80;;;;;;5080250;28;20051;-67
2021/12/11 12:22:53;;;;;;;76.88;40.13;;;230.40;2124.80;;;;;;5077590;28;20025;-60
2021/12/11 12:25:20;;;;;;;90.03;44.03;;;230.40;2124.80;;;;;;5077283;28;20521;-62
2021/12/11 12:27:46;;;;;;;95.70;45.97;;;230.40;2124.80;;;;;;5077872;28;20082;-60
2021/12/11 12:30:19;;;;;;;104.00;49.97;;;230.40;2124.80;;;;;;5077460;28;20029;-60